sensor_id;sensor_type;location;lat;lon;timestamp;pressure;altitude;pressure_sealevel;temperature;humidity
51617;BME280;37697;52.588;13.394;2024-01-11T00:01:19;102709.88;;;-8.98;87.72
51617;BME280;37697;52.588;13.394;2024-01-11T00:06:45;102706.96;;;-8.91;88.36
51617;BME280;37697;52.588;13.394;2024-01-11T00:12:11;102697.08;;;-8.86;89.10
51617;BME280;37697;52.588;13.394;2024-01-11T00:17:36;102687.65;;;-8.79;89.07
51617;BME280;37697;52.588;13.394;2024-01-11T00:23:03;102665.27;;;-8.73;89.22
51617;BME280;37697;52.588;13.394;2024-01-11T00:28:29;102668.23;;;-8.68;90.44
51617;BME280;37697;52.588;13.394;2024-01-11T00:33:54;102663.98;;;-8.62;90.47
51617;BME280;37697;52.588;13.394;2024-01-11T00:39:20;102632.77;;;-8.53;90.53
51617;BME280;37697;52.588;13.394;2024-01-11T00:44:46;102623.80;;;-8.46;91.37
51617;BME280;37697;52.588;13.394;2024-01-11T00:50:12;102626.52;;;-8.39;91.98
51617;BME280;37697;52.588;13.394;2024-01-11T00:55:38;102624.10;;;-8.32;92.16
51617;BME280;37697;52.588;13.394;2024-01-11T01:01:08;102604.08;;;-8.26;92.47
51617;BME280;37697;52.588;13.394;2024-01-11T01:06:34;102574.07;;;-8.22;92.56
51617;BME280;37697;52.588;13.394;2024-01-11T01:11:59;102583.71;;;-8.24;92.76
51617;BME280;37697;52.588;13.394;2024-01-11T01:17:25;102584.98;;;-8.26;92.88
51617;BME280;37697;52.588;13.394;2024-01-11T01:22:51;102583.64;;;-8.27;93.18
51617;BME280;37697;52.588;13.394;2024-01-11T01:28:17;102585.13;;;-8.28;93.30
51617;BME280;37697;52.588;13.394;2024-01-11T01:33:43;102600.42;;;-8.24;93.60
51617;BME280;37697;52.588;13.394;2024-01-11T01:39:09;102599.23;;;-8.22;93.76
51617;BME280;37697;52.588;13.394;2024-01-11T01:44:28;102598.63;;;-8.22;94.30
51617;BME280;37697;52.588;13.394;2024-01-11T01:49:54;102604.14;;;-8.15;94.67
51617;BME280;37697;52.588;13.394;2024-01-11T01:55:21;102605.77;;;-8.09;94.80
51617;BME280;37697;52.588;13.394;2024-01-11T02:00:48;102619.89;;;-8.02;95.14
51617;BME280;37697;52.588;13.394;2024-01-11T02:06:16;102626.06;;;-7.92;95.42
51617;BME280;37697;52.588;13.394;2024-01-11T02:11:43;102626.67;;;-7.87;95.55
51617;BME280;37697;52.588;13.394;2024-01-11T02:17:09;102632.52;;;-7.81;95.87
51617;BME280;37697;52.588;13.394;2024-01-11T02:22:38;102618.92;;;-7.74;96.14
51617;BME280;37697;52.588;13.394;2024-01-11T02:28:04;102620.98;;;-7.67;96.55
51617;BME280;37697;52.588;13.394;2024-01-11T02:33:30;102625.40;;;-7.61;96.57
51617;BME280;37697;52.588;13.394;2024-01-11T02:38:56;102626.08;;;-7.54;97.30
51617;BME280;37697;52.588;13.394;2024-01-11T02:44:22;102609.90;;;-7.47;97.18
51617;BME280;37697;52.588;13.394;2024-01-11T02:49:48;102596.58;;;-7.40;97.39
51617;BME280;37697;52.588;13.394;2024-01-11T02:55:14;102592.48;;;-7.36;97.38
51617;BME280;37697;52.588;13.394;2024-01-11T03:00:40;102583.80;;;-7.33;97.77
51617;BME280;37697;52.588;13.394;2024-01-11T03:06:06;102609.79;;;-7.32;97.71
51617;BME280;37697;52.588;13.394;2024-01-11T03:11:30;102602.38;;;-7.29;98.08
51617;BME280;37697;52.588;13.394;2024-01-11T03:16:56;102603.56;;;-7.26;97.65
51617;BME280;37697;52.588;13.394;2024-01-11T03:22:22;102605.31;;;-7.26;97.84
51617;BME280;37697;52.588;13.394;2024-01-11T03:27:48;102596.68;;;-7.25;98.15
51617;BME280;37697;52.588;13.394;2024-01-11T03:33:13;102607.96;;;-7.21;98.41
51617;BME280;37697;52.588;13.394;2024-01-11T03:38:39;102590.31;;;-7.16;98.90
51617;BME280;37697;52.588;13.394;2024-01-11T03:44:06;102564.48;;;-7.13;98.70
51617;BME280;37697;52.588;13.394;2024-01-11T03:49:32;102548.89;;;-7.08;98.51
51617;BME280;37697;52.588;13.394;2024-01-11T03:54:57;102547.38;;;-7.06;98.69
51617;BME280;37697;52.588;13.394;2024-01-11T04:00:23;102541.05;;;-7.07;99.10
51617;BME280;37697;52.588;13.394;2024-01-11T04:05:49;102539.25;;;-7.09;99.82
51617;BME280;37697;52.588;13.394;2024-01-11T04:11:15;102540.58;;;-7.03;99.92
51617;BME280;37697;52.588;13.394;2024-01-11T04:16:42;102522.98;;;-6.98;100.00
51617;BME280;37697;52.588;13.394;2024-01-11T04:22:08;102549.69;;;-6.92;100.00
51617;BME280;37697;52.588;13.394;2024-01-11T04:27:33;102546.34;;;-6.81;100.00
51617;BME280;37697;52.588;13.394;2024-01-11T04:32:59;102537.48;;;-6.74;100.00
51617;BME280;37697;52.588;13.394;2024-01-11T04:38:25;102538.27;;;-6.67;100.00
51617;BME280;37697;52.588;13.394;2024-01-11T04:43:51;102542.79;;;-6.60;100.00
51617;BME280;37697;52.588;13.394;2024-01-11T04:49:11;102524.64;;;-6.54;100.00
51617;BME280;37697;52.588;13.394;2024-01-11T04:54:37;102515.20;;;-6.46;100.00
51617;BME280;37697;52.588;13.394;2024-01-11T05:00:03;102511.15;;;-6.41;100.00
51617;BME280;37697;52.588;13.394;2024-01-11T05:05:29;102490.78;;;-6.38;100.00
51617;BME280;37697;52.588;13.394;2024-01-11T05:10:55;102517.72;;;-6.33;100.00
51617;BME280;37697;52.588;13.394;2024-01-11T05:16:21;102522.20;;;-6.26;100.00
51617;BME280;37697;52.588;13.394;2024-01-11T05:21:47;102502.86;;;-6.20;100.00
51617;BME280;37697;52.588;13.394;2024-01-11T05:27:13;102515.14;;;-6.14;100.00
51617;BME280;37697;52.588;13.394;2024-01-11T05:32:39;102502.33;;;-6.09;100.00
51617;BME280;37697;52.588;13.394;2024-01-11T05:38:05;102498.98;;;-6.02;100.00
51617;BME280;37697;52.588;13.394;2024-01-11T05:43:31;102497.43;;;-5.94;100.00
51617;BME280;37697;52.588;13.394;2024-01-11T05:48:56;102497.75;;;-5.90;100.00
51617;BME280;37697;52.588;13.394;2024-01-11T05:54:22;102491.23;;;-5.87;100.00
51617;BME280;37697;52.588;13.394;2024-01-11T05:59:48;102492.16;;;-5.84;100.00
51617;BME280;37697;52.588;13.394;2024-01-11T06:05:14;102521.85;;;-5.79;100.00
51617;BME280;37697;52.588;13.394;2024-01-11T06:10:40;102519.05;;;-5.72;100.00
51617;BME280;37697;52.588;13.394;2024-01-11T06:16:06;102494.41;;;-5.67;100.00
51617;BME280;37697;52.588;13.394;2024-01-11T06:21:34;102487.70;;;-5.64;100.00
51617;BME280;37697;52.588;13.394;2024-01-11T06:27:00;102496.55;;;-5.62;100.00
51617;BME280;37697;52.588;13.394;2024-01-11T06:32:26;102499.70;;;-5.56;100.00
51617;BME280;37697;52.588;13.394;2024-01-11T06:37:44;102491.16;;;-5.49;100.00
51617;BME280;37697;52.588;13.394;2024-01-11T06:43:10;102483.10;;;-5.42;100.00
51617;BME280;37697;52.588;13.394;2024-01-11T06:48:36;102474.48;;;-5.33;100.00
51617;BME280;37697;52.588;13.394;2024-01-11T06:54:02;102473.95;;;-5.24;100.00
51617;BME280;37697;52.588;13.394;2024-01-11T06:59:27;102468.89;;;-5.18;100.00
51617;BME280;37697;52.588;13.394;2024-01-11T07:04:53;102459.92;;;-5.15;100.00
51617;BME280;37697;52.588;13.394;2024-01-11T07:10:19;102461.21;;;-5.11;100.00
51617;BME280;37697;52.588;13.394;2024-01-11T07:15:45;102477.77;;;-5.07;100.00
51617;BME280;37697;52.588;13.394;2024-01-11T07:21:10;102473.95;;;-4.99;100.00
51617;BME280;37697;52.588;13.394;2024-01-11T07:26:16;102462.16;;;-4.94;100.00
51617;BME280;37697;52.588;13.394;2024-01-11T07:31:42;102459.77;;;-4.89;100.00
51617;BME280;37697;52.588;13.394;2024-01-11T07:37:08;102469.06;;;-4.81;100.00
51617;BME280;37697;52.588;13.394;2024-01-11T07:42:33;102468.08;;;-4.77;100.00
51617;BME280;37697;52.588;13.394;2024-01-11T07:47:59;102472.33;;;-4.69;100.00
51617;BME280;37697;52.588;13.394;2024-01-11T07:53:25;102463.25;;;-4.62;100.00
51617;BME280;37697;52.588;13.394;2024-01-11T07:58:51;102452.95;;;-4.56;100.00
51617;BME280;37697;52.588;13.394;2024-01-11T08:04:16;102450.70;;;-4.51;100.00
51617;BME280;37697;52.588;13.394;2024-01-11T08:09:42;102452.44;;;-4.46;100.00
51617;BME280;37697;52.588;13.394;2024-01-11T08:15:09;102458.44;;;-4.40;100.00
51617;BME280;37697;52.588;13.394;2024-01-11T08:20:40;102454.43;;;-4.34;100.00
51617;BME280;37697;52.588;13.394;2024-01-11T08:26:06;102461.92;;;-4.28;100.00
51617;BME280;37697;52.588;13.394;2024-01-11T08:31:32;102457.34;;;-4.22;100.00
51617;BME280;37697;52.588;13.394;2024-01-11T08:36:59;102440.70;;;-4.14;100.00
51617;BME280;37697;52.588;13.394;2024-01-11T08:42:24;102439.80;;;-4.08;100.00
51617;BME280;37697;52.588;13.394;2024-01-11T08:47:50;102439.66;;;-3.98;100.00
51617;BME280;37697;52.588;13.394;2024-01-11T08:53:16;102439.81;;;-3.91;100.00
51617;BME280;37697;52.588;13.394;2024-01-11T08:58:42;102433.50;;;-3.84;100.00
51617;BME280;37697;52.588;13.394;2024-01-11T09:04:02;102413.31;;;-3.76;100.00
51617;BME280;37697;52.588;13.394;2024-01-11T09:09:27;102410.48;;;-3.66;100.00
51617;BME280;37697;52.588;13.394;2024-01-11T09:15:01;102386.86;;;-3.54;100.00
51617;BME280;37697;52.588;13.394;2024-01-11T09:20:27;102390.95;;;-3.48;100.00
51617;BME280;37697;52.588;13.394;2024-01-11T09:25:53;102399.34;;;-3.44;100.00
51617;BME280;37697;52.588;13.394;2024-01-11T09:31:18;102402.94;;;-3.38;100.00
51617;BME280;37697;52.588;13.394;2024-01-11T09:36:44;102411.92;;;-3.30;100.00
51617;BME280;37697;52.588;13.394;2024-01-11T09:42:10;102413.09;;;-3.22;100.00
51617;BME280;37697;52.588;13.394;2024-01-11T09:47:36;102424.34;;;-3.15;100.00
51617;BME280;37697;52.588;13.394;2024-01-11T09:53:03;102429.08;;;-3.11;100.00
51617;BME280;37697;52.588;13.394;2024-01-11T09:58:30;102420.44;;;-3.06;100.00
51617;BME280;37697;52.588;13.394;2024-01-11T10:03:56;102418.61;;;-2.99;100.00
51617;BME280;37697;52.588;13.394;2024-01-11T10:09:22;102417.64;;;-2.91;100.00
51617;BME280;37697;52.588;13.394;2024-01-11T10:14:48;102420.61;;;-2.81;100.00
51617;BME280;37697;52.588;13.394;2024-01-11T10:20:14;102418.16;;;-2.71;100.00
51617;BME280;37697;52.588;13.394;2024-01-11T10:25:43;102397.15;;;-2.63;100.00
51617;BME280;37697;52.588;13.394;2024-01-11T10:31:09;102386.25;;;-2.59;100.00
51617;BME280;37697;52.588;13.394;2024-01-11T10:36:33;102386.27;;;-2.56;100.00
51617;BME280;37697;52.588;13.394;2024-01-11T10:42:06;102400.85;;;-2.55;100.00
51617;BME280;37697;52.588;13.394;2024-01-11T10:47:32;102413.37;;;-2.54;100.00
51617;BME280;37697;52.588;13.394;2024-01-11T10:53:04;102406.46;;;-2.49;100.00
51617;BME280;37697;52.588;13.394;2024-01-11T10:58:34;102395.91;;;-2.43;100.00
51617;BME280;37697;52.588;13.394;2024-01-11T11:04:00;102377.98;;;-2.40;100.00
51617;BME280;37697;52.588;13.394;2024-01-11T11:09:28;102375.73;;;-2.40;100.00
51617;BME280;37697;52.588;13.394;2024-01-11T11:14:57;102386.93;;;-2.42;100.00
51617;BME280;37697;52.588;13.394;2024-01-11T11:20:24;102395.48;;;-2.44;100.00
51617;BME280;37697;52.588;13.394;2024-01-11T11:25:41;102397.74;;;-2.45;100.00
51617;BME280;37697;52.588;13.394;2024-01-11T11:31:06;102406.08;;;-2.44;100.00
51617;BME280;37697;52.588;13.394;2024-01-11T11:36:34;102422.91;;;-2.46;100.00
51617;BME280;37697;52.588;13.394;2024-01-11T11:42:00;102422.45;;;-2.44;100.00
51617;BME280;37697;52.588;13.394;2024-01-11T11:47:33;102403.58;;;-2.38;100.00
51617;BME280;37697;52.588;13.394;2024-01-11T11:52:59;102399.30;;;-2.34;100.00
51617;BME280;37697;52.588;13.394;2024-01-11T11:58:25;102404.44;;;-2.30;100.00
51617;BME280;37697;52.588;13.394;2024-01-11T12:03:51;102392.17;;;-2.24;100.00
51617;BME280;37697;52.588;13.394;2024-01-11T12:09:20;102374.80;;;-2.19;100.00
51617;BME280;37697;52.588;13.394;2024-01-11T12:14:46;102384.77;;;-2.15;100.00
51617;BME280;37697;52.588;13.394;2024-01-11T12:20:12;102393.23;;;-2.11;100.00
51617;BME280;37697;52.588;13.394;2024-01-11T12:25:38;102396.69;;;-2.06;100.00
51617;BME280;37697;52.588;13.394;2024-01-11T12:31:05;102389.89;;;-2.03;100.00
51617;BME280;37697;52.588;13.394;2024-01-11T12:36:31;102376.09;;;-2.01;100.00
51617;BME280;37697;52.588;13.394;2024-01-11T12:41:57;102368.31;;;-1.96;100.00
51617;BME280;37697;52.588;13.394;2024-01-11T12:47:24;102362.37;;;-1.90;100.00
51617;BME280;37697;52.588;13.394;2024-01-11T12:53:05;102364.17;;;-1.82;100.00
51617;BME280;37697;52.588;13.394;2024-01-11T12:58:32;102365.02;;;-1.74;100.00
51617;BME280;37697;52.588;13.394;2024-01-11T13:03:48;102343.25;;;-1.69;100.00
51617;BME280;37697;52.588;13.394;2024-01-11T13:09:14;102333.42;;;-1.64;100.00
51617;BME280;37697;52.588;13.394;2024-01-11T13:14:39;102328.58;;;-1.60;100.00
51617;BME280;37697;52.588;13.394;2024-01-11T13:20:07;102332.13;;;-1.59;100.00
51617;BME280;37697;52.588;13.394;2024-01-11T13:25:43;102312.95;;;-1.59;100.00
51617;BME280;37697;52.588;13.394;2024-01-11T13:31:09;102312.98;;;-1.59;100.00
51617;BME280;37697;52.588;13.394;2024-01-11T13:36:34;102300.20;;;-1.56;100.00
51617;BME280;37697;52.588;13.394;2024-01-11T13:42:00;102292.61;;;-1.56;100.00
51617;BME280;37697;52.588;13.394;2024-01-11T13:47:18;102286.39;;;-1.57;100.00
51617;BME280;37697;52.588;13.394;2024-01-11T13:52:45;102289.63;;;-1.55;100.00
51617;BME280;37697;52.588;13.394;2024-01-11T13:58:12;102291.54;;;-1.54;100.00
51617;BME280;37697;52.588;13.394;2024-01-11T14:03:38;102296.36;;;-1.56;100.00
51617;BME280;37697;52.588;13.394;2024-01-11T14:09:03;102289.77;;;-1.58;100.00
51617;BME280;37697;52.588;13.394;2024-01-11T14:14:29;102295.42;;;-1.61;100.00
51617;BME280;37697;52.588;13.394;2024-01-11T14:19:55;102293.70;;;-1.63;100.00
51617;BME280;37697;52.588;13.394;2024-01-11T14:25:23;102296.02;;;-1.66;100.00
51617;BME280;37697;52.588;13.394;2024-01-11T14:30:49;102307.81;;;-1.67;100.00
51617;BME280;37697;52.588;13.394;2024-01-11T14:36:15;102311.14;;;-1.64;100.00
51617;BME280;37697;52.588;13.394;2024-01-11T14:41:40;102309.91;;;-1.63;100.00
51617;BME280;37697;52.588;13.394;2024-01-11T14:46:58;102300.82;;;-1.63;100.00
51617;BME280;37697;52.588;13.394;2024-01-11T14:52:24;102302.65;;;-1.64;100.00
51617;BME280;37697;52.588;13.394;2024-01-11T14:57:50;102310.70;;;-1.64;100.00
51617;BME280;37697;52.588;13.394;2024-01-11T15:03:16;102312.21;;;-1.64;100.00
51617;BME280;37697;52.588;13.394;2024-01-11T15:08:34;102329.21;;;-1.68;100.00
51617;BME280;37697;52.588;13.394;2024-01-11T15:13:49;102343.15;;;-1.69;100.00
51617;BME280;37697;52.588;13.394;2024-01-11T15:19:15;102348.37;;;-1.67;100.00
51617;BME280;37697;52.588;13.394;2024-01-11T15:24:41;102348.98;;;-1.66;100.00
51617;BME280;37697;52.588;13.394;2024-01-11T15:30:10;102341.52;;;-1.64;100.00
51617;BME280;37697;52.588;13.394;2024-01-11T15:35:36;102341.97;;;-1.63;100.00
51617;BME280;37697;52.588;13.394;2024-01-11T15:40:55;102336.05;;;-1.60;100.00
51617;BME280;37697;52.588;13.394;2024-01-11T15:46:21;102331.48;;;-1.57;100.00
51617;BME280;37697;52.588;13.394;2024-01-11T15:51:47;102339.33;;;-1.53;100.00
51617;BME280;37697;52.588;13.394;2024-01-11T15:57:13;102332.56;;;-1.51;100.00
51617;BME280;37697;52.588;13.394;2024-01-11T16:02:38;102346.21;;;-1.52;100.00
51617;BME280;37697;52.588;13.394;2024-01-11T16:08:05;102356.70;;;-1.51;100.00
51617;BME280;37697;52.588;13.394;2024-01-11T16:13:23;102361.06;;;-1.48;100.00
51617;BME280;37697;52.588;13.394;2024-01-11T16:18:49;102368.33;;;-1.47;100.00
51617;BME280;37697;52.588;13.394;2024-01-11T16:24:07;102366.52;;;-1.45;100.00
51617;BME280;37697;52.588;13.394;2024-01-11T16:29:33;102377.34;;;-1.43;100.00
51617;BME280;37697;52.588;13.394;2024-01-11T16:34:59;102383.72;;;-1.39;100.00
51617;BME280;37697;52.588;13.394;2024-01-11T16:40:25;102391.42;;;-1.36;100.00
51617;BME280;37697;52.588;13.394;2024-01-11T16:45:51;102394.00;;;-1.33;100.00
51617;BME280;37697;52.588;13.394;2024-01-11T16:51:17;102407.76;;;-1.28;100.00
51617;BME280;37697;52.588;13.394;2024-01-11T16:56:42;102406.55;;;-1.26;100.00
51617;BME280;37697;52.588;13.394;2024-01-11T17:02:07;102403.02;;;-1.24;100.00
51617;BME280;37697;52.588;13.394;2024-01-11T17:07:33;102405.17;;;-1.21;100.00
51617;BME280;37697;52.588;13.394;2024-01-11T17:12:59;102404.06;;;-1.18;100.00
51617;BME280;37697;52.588;13.394;2024-01-11T17:18:24;102412.89;;;-1.14;100.00
51617;BME280;37697;52.588;13.394;2024-01-11T17:23:50;102415.64;;;-1.13;100.00
51617;BME280;37697;52.588;13.394;2024-01-11T17:29:16;102416.33;;;-1.10;100.00
51617;BME280;37697;52.588;13.394;2024-01-11T17:34:34;102420.16;;;-1.06;100.00
51617;BME280;37697;52.588;13.394;2024-01-11T17:39:50;102420.08;;;-1.03;100.00
51617;BME280;37697;52.588;13.394;2024-01-11T17:45:16;102422.90;;;-1.02;100.00
51617;BME280;37697;52.588;13.394;2024-01-11T17:50:42;102413.54;;;-0.99;100.00
51617;BME280;37697;52.588;13.394;2024-01-11T17:56:08;102412.73;;;-0.97;100.00
51617;BME280;37697;52.588;13.394;2024-01-11T18:01:26;102405.52;;;-0.95;100.00
51617;BME280;37697;52.588;13.394;2024-01-11T18:06:52;102417.54;;;-0.91;100.00
51617;BME280;37697;52.588;13.394;2024-01-11T18:12:18;102418.23;;;-0.90;100.00
51617;BME280;37697;52.588;13.394;2024-01-11T18:17:44;102410.95;;;-0.86;100.00
51617;BME280;37697;52.588;13.394;2024-01-11T18:23:10;102404.13;;;-0.84;100.00
51617;BME280;37697;52.588;13.394;2024-01-11T18:28:36;102396.23;;;-0.81;100.00
51617;BME280;37697;52.588;13.394;2024-01-11T18:34:01;102399.85;;;-0.81;100.00
51617;BME280;37697;52.588;13.394;2024-01-11T18:39:27;102398.02;;;-0.81;100.00
51617;BME280;37697;52.588;13.394;2024-01-11T18:44:53;102389.02;;;-0.78;100.00
51617;BME280;37697;52.588;13.394;2024-01-11T18:50:19;102394.44;;;-0.75;100.00
51617;BME280;37697;52.588;13.394;2024-01-11T18:55:45;102391.58;;;-0.71;100.00
51617;BME280;37697;52.588;13.394;2024-01-11T19:01:10;102399.98;;;-0.69;100.00
51617;BME280;37697;52.588;13.394;2024-01-11T19:06:36;102410.72;;;-0.68;100.00
51617;BME280;37697;52.588;13.394;2024-01-11T19:11:55;102411.41;;;-0.66;100.00
51617;BME280;37697;52.588;13.394;2024-01-11T19:17:20;102417.35;;;-0.66;100.00
51617;BME280;37697;52.588;13.394;2024-01-11T19:22:40;102423.38;;;-0.65;100.00
51617;BME280;37697;52.588;13.394;2024-01-11T19:28:05;102436.54;;;-0.65;100.00
51617;BME280;37697;52.588;13.394;2024-01-11T19:33:21;102435.63;;;-0.64;100.00
51617;BME280;37697;52.588;13.394;2024-01-11T19:38:47;102440.34;;;-0.62;100.00
51617;BME280;37697;52.588;13.394;2024-01-11T19:44:06;102442.92;;;-0.61;100.00
51617;BME280;37697;52.588;13.394;2024-01-11T19:49:34;102440.94;;;-0.60;100.00
51617;BME280;37697;52.588;13.394;2024-01-11T19:55:00;102434.52;;;-0.57;100.00
51617;BME280;37697;52.588;13.394;2024-01-11T20:00:18;102439.66;;;-0.55;100.00
51617;BME280;37697;52.588;13.394;2024-01-11T20:05:34;102451.80;;;-0.56;100.00
51617;BME280;37697;52.588;13.394;2024-01-11T20:10:53;102471.38;;;-0.53;100.00
51617;BME280;37697;52.588;13.394;2024-01-11T20:16:19;102479.48;;;-0.49;100.00
51617;BME280;37697;52.588;13.394;2024-01-11T20:21:45;102478.13;;;-0.45;100.00
51617;BME280;37697;52.588;13.394;2024-01-11T20:27:11;102473.87;;;-0.44;100.00
51617;BME280;37697;52.588;13.394;2024-01-11T20:32:36;102474.80;;;-0.46;100.00
51617;BME280;37697;52.588;13.394;2024-01-11T20:38:03;102476.00;;;-0.48;100.00
51617;BME280;37697;52.588;13.394;2024-01-11T20:43:24;102478.36;;;-0.48;100.00
51617;BME280;37697;52.588;13.394;2024-01-11T20:48:58;102488.98;;;-0.47;100.00
51617;BME280;37697;52.588;13.394;2024-01-11T20:54:24;102503.41;;;-0.47;100.00
51617;BME280;37697;52.588;13.394;2024-01-11T20:59:45;102509.34;;;-0.44;100.00
51617;BME280;37697;52.588;13.394;2024-01-11T21:05:14;102509.63;;;-0.40;100.00
51617;BME280;37697;52.588;13.394;2024-01-11T21:10:40;102509.88;;;-0.37;100.00
51617;BME280;37697;52.588;13.394;2024-01-11T21:16:05;102504.46;;;-0.37;100.00
51617;BME280;37697;52.588;13.394;2024-01-11T21:21:31;102511.81;;;-0.39;100.00
51617;BME280;37697;52.588;13.394;2024-01-11T21:26:49;102508.19;;;-0.38;100.00
51617;BME280;37697;52.588;13.394;2024-01-11T21:32:15;102513.45;;;-0.37;100.00
51617;BME280;37697;52.588;13.394;2024-01-11T21:37:41;102521.52;;;-0.35;100.00
51617;BME280;37697;52.588;13.394;2024-01-11T21:43:07;102527.55;;;-0.33;100.00
51617;BME280;37697;52.588;13.394;2024-01-11T21:48:32;102532.05;;;-0.33;100.00
51617;BME280;37697;52.588;13.394;2024-01-11T21:53:58;102542.81;;;-0.32;100.00
51617;BME280;37697;52.588;13.394;2024-01-11T21:59:24;102546.23;;;-0.32;100.00
51617;BME280;37697;52.588;13.394;2024-01-11T22:04:49;102544.59;;;-0.30;100.00
51617;BME280;37697;52.588;13.394;2024-01-11T22:10:15;102547.09;;;-0.27;100.00
51617;BME280;37697;52.588;13.394;2024-01-11T22:15:41;102538.11;;;-0.28;100.00
51617;BME280;37697;52.588;13.394;2024-01-11T22:21:07;102535.79;;;-0.31;100.00
51617;BME280;37697;52.588;13.394;2024-01-11T22:26:33;102541.97;;;-0.33;100.00
51617;BME280;37697;52.588;13.394;2024-01-11T22:31:59;102535.41;;;-0.30;100.00
51617;BME280;37697;52.588;13.394;2024-01-11T22:37:24;102543.16;;;-0.28;100.00
51617;BME280;37697;52.588;13.394;2024-01-11T22:42:50;102548.04;;;-0.28;100.00
51617;BME280;37697;52.588;13.394;2024-01-11T22:48:16;102547.08;;;-0.26;100.00
51617;BME280;37697;52.588;13.394;2024-01-11T22:53:42;102550.21;;;-0.25;100.00
51617;BME280;37697;52.588;13.394;2024-01-11T22:59:07;102553.56;;;-0.26;100.00
51617;BME280;37697;52.588;13.394;2024-01-11T23:04:34;102551.67;;;-0.25;100.00
51617;BME280;37697;52.588;13.394;2024-01-11T23:10:00;102548.45;;;-0.25;100.00
51617;BME280;37697;52.588;13.394;2024-01-11T23:15:13;102550.86;;;-0.26;100.00
51617;BME280;37697;52.588;13.394;2024-01-11T23:20:38;102547.79;;;-0.24;100.00
51617;BME280;37697;52.588;13.394;2024-01-11T23:26:05;102546.59;;;-0.22;100.00
51617;BME280;37697;52.588;13.394;2024-01-11T23:31:31;102546.44;;;-0.21;100.00
51617;BME280;37697;52.588;13.394;2024-01-11T23:36:57;102538.31;;;-0.16;100.00
51617;BME280;37697;52.588;13.394;2024-01-11T23:42:23;102530.59;;;-0.12;100.00
51617;BME280;37697;52.588;13.394;2024-01-11T23:47:48;102528.21;;;-0.13;100.00
51617;BME280;37697;52.588;13.394;2024-01-11T23:53:14;102519.81;;;-0.17;100.00
51617;BME280;37697;52.588;13.394;2024-01-11T23:58:40;102517.41;;;-0.22;100.00
